Aviation Digital Data Service (ADDS)

Output produced by METARs form (1345 UTC 23 January 2019)
found at http://www.aviationweather.gov/metar/data/
 
METAR text: RKSI 231330Z 34013KT CAVOK M00/M13 Q1023 NOSIG
Conditions at: RKSI (CHAJANG NI , KR) observed 1330 UTC 23 January 2019
Temperature: 0.0°C (32°F)
Dewpoint: -13.0°C ( 9°F) [RH = 37%]
Pressure (altimeter): 30.21 inches Hg (1023.0 mb)
Winds: from the NNW (340 degrees) at 15 MPH (13 knots; 6.7 m/s)
Visibility: 6 or more miles (10+ km)
Ceiling: ceiling and visibility are OK
Clouds: unknown
Weather: no significant weather observed at this time

METAR text: RKSI 231300Z 34013KT CAVOK M00/M13 Q1023 NOSIG
Conditions at: RKSI (CHAJANG NI , KR) observed 1300 UTC 23 January 2019
Temperature: 0.0°C (32°F)
Dewpoint: -13.0°C ( 9°F) [RH = 37%]
Pressure (altimeter): 30.21 inches Hg (1023.0 mb)
Winds: from the NNW (340 degrees) at 15 MPH (13 knots; 6.7 m/s)
Visibility: 6 or more miles (10+ km)
Ceiling: ceiling and visibility are OK
Clouds: unknown
Weather: no significant weather observed at this time

METAR text: RKSI 231230Z 34011KT CAVOK 00/M14 Q1023 NOSIG
Conditions at: RKSI (CHAJANG NI , KR) observed 1230 UTC 23 January 2019
Temperature: 0.0°C (32°F)
Dewpoint: -14.0°C ( 7°F) [RH = 34%]
Pressure (altimeter): 30.21 inches Hg (1023.0 mb)
Winds: from the NNW (340 degrees) at 13 MPH (11 knots; 5.7 m/s)
Visibility: 6 or more miles (10+ km)
Ceiling: ceiling and visibility are OK
Clouds: unknown
Weather: no significant weather observed at this time

METAR text: RKSI 231200Z 34012KT CAVOK 01/M14 Q1023 NOSIG
Conditions at: RKSI (CHAJANG NI , KR) observed 1200 UTC 23 January 2019
Temperature: 1.0°C (34°F)
Dewpoint: -14.0°C ( 7°F) [RH = 32%]
Pressure (altimeter): 30.21 inches Hg (1023.0 mb)
Winds: from the NNW (340 degrees) at 14 MPH (12 knots; 6.2 m/s)
Visibility: 6 or more miles (10+ km)
Ceiling: ceiling and visibility are OK
Clouds: unknown
Weather: no significant weather observed at this time

METAR text: RKSI 231130Z 34016KT CAVOK 01/M13 Q1023 NOSIG
Conditions at: RKSI (CHAJANG NI , KR) observed 1130 UTC 23 January 2019
Temperature: 1.0°C (34°F)
Dewpoint: -13.0°C ( 9°F) [RH = 34%]
Pressure (altimeter): 30.21 inches Hg (1023.0 mb)
Winds: from the NNW (340 degrees) at 18 MPH (16 knots; 8.2 m/s)
Visibility: 6 or more miles (10+ km)
Ceiling: ceiling and visibility are OK
Clouds: unknown
Weather: no significant weather observed at this time

METAR text: RKSI 231100Z 33015KT CAVOK 01/M13 Q1023 NOSIG
Conditions at: RKSI (CHAJANG NI , KR) observed 1100 UTC 23 January 2019
Temperature: 1.0°C (34°F)
Dewpoint: -13.0°C ( 9°F) [RH = 34%]
Pressure (altimeter): 30.21 inches Hg (1023.0 mb)
Winds: from the NNW (330 degrees) at 17 MPH (15 knots; 7.7 m/s)
Visibility: 6 or more miles (10+ km)
Ceiling: ceiling and visibility are OK
Clouds: unknown
Weather: no significant weather observed at this time

METAR text: RKSI 231030Z 32010KT CAVOK 01/M12 Q1023 NOSIG
Conditions at: RKSI (CHAJANG NI , KR) observed 1030 UTC 23 January 2019
Temperature: 1.0°C (34°F)
Dewpoint: -12.0°C (10°F) [RH = 37%]
Pressure (altimeter): 30.21 inches Hg (1023.0 mb)
Winds: from the NW (320 degrees) at 12 MPH (10 knots; 5.1 m/s)
Visibility: 6 or more miles (10+ km)
Ceiling: ceiling and visibility are OK
Clouds: unknown
Weather: no significant weather observed at this time

METAR text: RKSI 231000Z 33012KT CAVOK 02/M11 Q1022 NOSIG
Conditions at: RKSI (CHAJANG NI , KR) observed 1000 UTC 23 January 2019
Temperature: 2.0°C (36°F)
Dewpoint: -11.0°C (12°F) [RH = 37%]
Pressure (altimeter): 30.18 inches Hg (1022.0 mb)
Winds: from the NNW (330 degrees) at 14 MPH (12 knots; 6.2 m/s)
Visibility: 6 or more miles (10+ km)
Ceiling: ceiling and visibility are OK
Clouds: unknown
Weather: no significant weather observed at this time

METAR text: RKSI 230930Z 32016KT CAVOK 02/M14 Q1022 NOSIG
Conditions at: RKSI (CHAJANG NI , KR) observed 0930 UTC 23 January 2019
Temperature: 2.0°C (36°F)
Dewpoint: -14.0°C ( 7°F) [RH = 29%]
Pressure (altimeter): 30.18 inches Hg (1022.0 mb)
Winds: from the NW (320 degrees) at 18 MPH (16 knots; 8.2 m/s)
Visibility: 6 or more miles (10+ km)
Ceiling: ceiling and visibility are OK
Clouds: unknown
Weather: no significant weather observed at this time

METAR text: RKSI 230900Z 31012KT CAVOK 03/M11 Q1021 NOSIG
Conditions at: RKSI (CHAJANG NI , KR) observed 0900 UTC 23 January 2019
Temperature: 3.0°C (37°F)
Dewpoint: -11.0°C (12°F) [RH = 35%]
Pressure (altimeter): 30.15 inches Hg (1021.0 mb)
Winds: from the NW (310 degrees) at 14 MPH (12 knots; 6.2 m/s)
Visibility: 6 or more miles (10+ km)
Ceiling: ceiling and visibility are OK
Clouds: unknown
Weather: no significant weather observed at this time

METAR text: RKSI 230830Z 31012KT CAVOK 04/M11 Q1021 NOSIG
Conditions at: RKSI (CHAJANG NI , KR) observed 0830 UTC 23 January 2019
Temperature: 4.0°C (39°F)
Dewpoint: -11.0°C (12°F) [RH = 32%]
Pressure (altimeter): 30.15 inches Hg (1021.0 mb)
Winds: from the NW (310 degrees) at 14 MPH (12 knots; 6.2 m/s)
Visibility: 6 or more miles (10+ km)
Ceiling: ceiling and visibility are OK
Clouds: unknown
Weather: no significant weather observed at this time

METAR text: RKSI 230800Z 31012KT CAVOK 04/M10 Q1021 NOSIG
Conditions at: RKSI (CHAJANG NI , KR) observed 0800 UTC 23 January 2019
Temperature: 4.0°C (39°F)
Dewpoint: -10.0°C (14°F) [RH = 35%]
Pressure (altimeter): 30.15 inches Hg (1021.0 mb)
Winds: from the NW (310 degrees) at 14 MPH (12 knots; 6.2 m/s)
Visibility: 6 or more miles (10+ km)
Ceiling: ceiling and visibility are OK
Clouds: unknown
Weather: no significant weather observed at this time

METAR text: RKSI 230730Z 30013KT CAVOK 05/M07 Q1020 NOSIG
Conditions at: RKSI (CHAJANG NI , KR) observed 0730 UTC 23 January 2019
Temperature: 5.0°C (41°F)
Dewpoint: -7.0°C (19°F) [RH = 41%]
Pressure (altimeter): 30.12 inches Hg (1020.0 mb)
Winds: from the WNW (300 degrees) at 15 MPH (13 knots; 6.7 m/s)
Visibility: 6 or more miles (10+ km)
Ceiling: ceiling and visibility are OK
Clouds: unknown
Weather: no significant weather observed at this time

METAR text: RKSI 230700Z 32015KT CAVOK 06/M12 Q1020 NOSIG
Conditions at: RKSI (CHAJANG NI , KR) observed 0700 UTC 23 January 2019
Temperature: 6.0°C (43°F)
Dewpoint: -12.0°C (10°F) [RH = 26%]
Pressure (altimeter): 30.12 inches Hg (1020.0 mb)
Winds: from the NW (320 degrees) at 17 MPH (15 knots; 7.7 m/s)
Visibility: 6 or more miles (10+ km)
Ceiling: ceiling and visibility are OK
Clouds: unknown
Weather: no significant weather observed at this time

METAR text: RKSI 230630Z 31014KT CAVOK 06/M13 Q1020 NOSIG
Conditions at: RKSI (CHAJANG NI , KR) observed 0630 UTC 23 January 2019
Temperature: 6.0°C (43°F)
Dewpoint: -13.0°C ( 9°F) [RH = 24%]
Pressure (altimeter): 30.12 inches Hg (1020.0 mb)
Winds: from the NW (310 degrees) at 16 MPH (14 knots; 7.2 m/s)
Visibility: 6 or more miles (10+ km)
Ceiling: ceiling and visibility are OK
Clouds: unknown
Weather: no significant weather observed at this time

METAR text: RKSI 230600Z 31015KT CAVOK 07/M13 Q1020 NOSIG
Conditions at: RKSI (CHAJANG NI , KR) observed 0600 UTC 23 January 2019
Temperature: 7.0°C (45°F)
Dewpoint: -13.0°C ( 9°F) [RH = 22%]
Pressure (altimeter): 30.12 inches Hg (1020.0 mb)
Winds: from the NW (310 degrees) at 17 MPH (15 knots; 7.7 m/s)
Visibility: 6 or more miles (10+ km)
Ceiling: ceiling and visibility are OK
Clouds: unknown
Weather: no significant weather observed at this time

METAR text: RKSI 230530Z 33011KT CAVOK 07/M12 Q1020 NOSIG
Conditions at: RKSI (CHAJANG NI , KR) observed 0530 UTC 23 January 2019
Temperature: 7.0°C (45°F)
Dewpoint: -12.0°C (10°F) [RH = 24%]
Pressure (altimeter): 30.12 inches Hg (1020.0 mb)
Winds: from the NNW (330 degrees) at 13 MPH (11 knots; 5.7 m/s)
Visibility: 6 or more miles (10+ km)
Ceiling: ceiling and visibility are OK
Clouds: unknown
Weather: no significant weather observed at this time

METAR text: RKSI 230500Z 33014KT CAVOK 06/M11 Q1020 NOSIG
Conditions at: RKSI (CHAJANG NI , KR) observed 0500 UTC 23 January 2019
Temperature: 6.0°C (43°F)
Dewpoint: -11.0°C (12°F) [RH = 28%]
Pressure (altimeter): 30.12 inches Hg (1020.0 mb)
Winds: from the NNW (330 degrees) at 16 MPH (14 knots; 7.2 m/s)
Visibility: 6 or more miles (10+ km)
Ceiling: ceiling and visibility are OK
Clouds: unknown
Weather: no significant weather observed at this time

METAR text: RKSI 230430Z 30013KT CAVOK 06/M08 Q1020 NOSIG
Conditions at: RKSI (CHAJANG NI , KR) observed 0430 UTC 23 January 2019
Temperature: 6.0°C (43°F)
Dewpoint: -8.0°C (18°F) [RH = 36%]
Pressure (altimeter): 30.12 inches Hg (1020.0 mb)
Winds: from the WNW (300 degrees) at 15 MPH (13 knots; 6.7 m/s)
Visibility: 6 or more miles (10+ km)
Ceiling: ceiling and visibility are OK
Clouds: unknown
Weather: no significant weather observed at this time

METAR text: RKSI 230400Z 29011KT CAVOK 06/M06 Q1020 NOSIG
Conditions at: RKSI (CHAJANG NI , KR) observed 0400 UTC 23 January 2019
Temperature: 6.0°C (43°F)
Dewpoint: -6.0°C (21°F) [RH = 42%]
Pressure (altimeter): 30.12 inches Hg (1020.0 mb)
Winds: from the WNW (290 degrees) at 13 MPH (11 knots; 5.7 m/s)
Visibility: 6 or more miles (10+ km)
Ceiling: ceiling and visibility are OK
Clouds: unknown
Weather: no significant weather observed at this time

METAR text: RKSI 230330Z 31012KT CAVOK 05/M07 Q1020 NOSIG
Conditions at: RKSI (CHAJANG NI , KR) observed 0330 UTC 23 January 2019
Temperature: 5.0°C (41°F)
Dewpoint: -7.0°C (19°F) [RH = 41%]
Pressure (altimeter): 30.12 inches Hg (1020.0 mb)
Winds: from the NW (310 degrees) at 14 MPH (12 knots; 6.2 m/s)
Visibility: 6 or more miles (10+ km)
Ceiling: ceiling and visibility are OK
Clouds: unknown
Weather: no significant weather observed at this time

METAR text: RKSI 230300Z 33011KT CAVOK 05/M07 Q1021 NOSIG
Conditions at: RKSI (CHAJANG NI , KR) observed 0300 UTC 23 January 2019
Temperature: 5.0°C (41°F)
Dewpoint: -7.0°C (19°F) [RH = 41%]
Pressure (altimeter): 30.15 inches Hg (1021.0 mb)
Winds: from the NNW (330 degrees) at 13 MPH (11 knots; 5.7 m/s)
Visibility: 6 or more miles (10+ km)
Ceiling: ceiling and visibility are OK
Clouds: unknown
Weather: no significant weather observed at this time

METAR text: RKSI 230230Z 32010KT 6000 NSC 04/M04 Q1021 NOSIG
Conditions at: RKSI (CHAJANG NI , KR) observed 0230 UTC 23 January 2019
Temperature: 4.0°C (39°F)
Dewpoint: -4.0°C (25°F) [RH = 56%]
Pressure (altimeter): 30.15 inches Hg (1021.0 mb)
Winds: from the NW (320 degrees) at 12 MPH (10 knots; 5.1 m/s)
Visibility: 4 miles ( 6 km)
Ceiling: at least 12,000 feet AGL
Clouds: sky clear below 12,000 feet AGL
Weather: no significant weather observed at this time

METAR text: RKSI 230200Z 30010KT 3500 BR FEW010 04/M01 Q1021 NOSIG
Conditions at: RKSI (CHAJANG NI , KR) observed 0200 UTC 23 January 2019
Temperature: 4.0°C (39°F)
Dewpoint: -1.0°C (30°F) [RH = 70%]
Pressure (altimeter): 30.15 inches Hg (1021.0 mb)
Winds: from the WNW (300 degrees) at 12 MPH (10 knots; 5.1 m/s)
Visibility: 2.17 miles (3.49 km)
Ceiling: at least 12,000 feet AGL
Clouds: few clouds at 1000 feet AGL
Weather: BR  (mist)

METAR text: RKSI 230130Z 30009KT 3500 BR FEW010 03/M01 Q1020 NOSIG
Conditions at: RKSI (CHAJANG NI , KR) observed 0130 UTC 23 January 2019
Temperature: 3.0°C (37°F)
Dewpoint: -1.0°C (30°F) [RH = 75%]
Pressure (altimeter): 30.12 inches Hg (1020.0 mb)
Winds: from the WNW (300 degrees) at 10 MPH (9 knots; 4.6 m/s)
Visibility: 2.17 miles (3.49 km)
Ceiling: at least 12,000 feet AGL
Clouds: few clouds at 1000 feet AGL
Weather: BR  (mist)

METAR text: RKSI 230100Z 30006KT 2800 BR FEW005 03/M00 Q1020 NOSIG
Conditions at: RKSI (CHAJANG NI , KR) observed 0100 UTC 23 January 2019
Temperature: 3.0°C (37°F)
Dewpoint: 0.0°C (32°F) [RH = 81%]
Pressure (altimeter): 30.12 inches Hg (1020.0 mb)
Winds: from the WNW (300 degrees) at 7 MPH (6 knots; 3.1 m/s)
Visibility: 1.74 miles (2.80 km)
Ceiling: at least 12,000 feet AGL
Clouds: few clouds at 500 feet AGL
Weather: BR  (mist)

METAR text: RKSI 230030Z 31004KT 2300 BR SCT005 02/M01 Q1019 NOSIG
Conditions at: RKSI (CHAJANG NI , KR) observed 0030 UTC 23 January 2019
Temperature: 2.0°C (36°F)
Dewpoint: -1.0°C (30°F) [RH = 80%]
Pressure (altimeter): 30.09 inches Hg (1019.0 mb)
Winds: from the NW (310 degrees) at 5 MPH (4 knots; 2.1 m/s)
Visibility: 1.43 miles (2.30 km)
Ceiling: at least 12,000 feet AGL
Clouds: scattered clouds at 500 feet AGL
Weather: BR  (mist)

METAR text: RKSI 230000Z 31005KT 1800 0100S R33R/P2000N R33L/P2000N R34/0800U PRFG BKN005 02/M00 Q1019 NOSIG
Conditions at: RKSI (CHAJANG NI , KR) observed 0000 UTC 23 January 2019
Temperature: 2.0°C (36°F)
Dewpoint: 0.0°C (32°F) [RH = 87%]
Pressure (altimeter): 30.09 inches Hg (1019.0 mb)
Winds: from the NW (310 degrees) at 6 MPH (5 knots; 2.6 m/s)
Visibility: 1.12 miles (1.80 km)
Ceiling: 500 feet AGL
Clouds: broken clouds at 500 feet AGL
Weather: PRFG  (partial fog)

METAR text: RKSI 222330Z 32003KT 0600 R33R/1800N R33L/P2000N R34/0400U FG BKN005 01/M01 Q1019 NOSIG
Conditions at: RKSI (CHAJANG NI , KR) observed 2330 UTC 22 January 2019
Temperature: 1.0°C (34°F)
Dewpoint: -1.0°C (30°F) [RH = 86%]
Pressure (altimeter): 30.09 inches Hg (1019.0 mb)
Winds: from the NW (320 degrees) at 3 MPH (3 knots; 1.5 m/s)
Visibility: 0.37 miles (0.60 km)
Ceiling: 500 feet AGL
Clouds: broken clouds at 500 feet AGL
Weather: FG  (fog)

METAR text: RKSI 222300Z 30002KT 0400 R33R/1200D R33L/1500D R34/0375U FG BKN005 M01/M03 Q1018 NOSIG
Conditions at: RKSI (CHAJANG NI , KR) observed 2300 UTC 22 January 2019
Temperature: -1.0°C (30°F)
Dewpoint: -3.0°C (27°F) [RH = 86%]
Pressure (altimeter): 30.06 inches Hg (1018.0 mb)
Winds: from the WNW (300 degrees) at 2 MPH (2 knots; 1.0 m/s)
Visibility: 0.25 miles (0.40 km)
Ceiling: 500 feet AGL
Clouds: broken clouds at 500 feet AGL
Weather: FG  (fog)

METAR text: RKSI 222230Z 29001KT 0200 R33R/1000D R33L/0650U R34/0350D FG BKN005 M02/M03 Q1018 NOSIG
Conditions at: RKSI (CHAJANG NI , KR) observed 2230 UTC 22 January 2019
Temperature: -2.0°C (28°F)
Dewpoint: -3.0°C (27°F) [RH = 93%]
Pressure (altimeter): 30.06 inches Hg (1018.0 mb)
Winds: from the WNW (290 degrees) at 1 MPH (1 knots; 0.5 m/s)
Visibility: 0.12 miles (0.19 km)
Ceiling: 500 feet AGL
Clouds: broken clouds at 500 feet AGL
Weather: FG  (fog)

METAR text: RKSI 222200Z 34002KT 0300 R33R/0700D R33L/0900D R34/1000D FG BKN005 M01/M03 Q1018 NOSIG
Conditions at: RKSI (CHAJANG NI , KR) observed 2200 UTC 22 January 2019
Temperature: -1.0°C (30°F)
Dewpoint: -3.0°C (27°F) [RH = 86%]
Pressure (altimeter): 30.06 inches Hg (1018.0 mb)
Winds: from the NNW (340 degrees) at 2 MPH (2 knots; 1.0 m/s)
Visibility: 0.19 miles (0.31 km)
Ceiling: 500 feet AGL
Clouds: broken clouds at 500 feet AGL
Weather: FG  (fog)

METAR text: RKSI 222130Z 01002KT 1200 0100NW R33R/1900N R33L/1900N R34/1000N PRFG SCT005 M01/M03 Q1018 NOSIG
Conditions at: RKSI (CHAJANG NI , KR) observed 2130 UTC 22 January 2019
Temperature: -1.0°C (30°F)
Dewpoint: -3.0°C (27°F) [RH = 86%]
Pressure (altimeter): 30.06 inches Hg (1018.0 mb)
Winds: from the N (10 degrees) at 2 MPH (2 knots; 1.0 m/s)
Visibility: 0.75 miles (1.21 km)
Ceiling: at least 12,000 feet AGL
Clouds: scattered clouds at 500 feet AGL
Weather: PRFG  (partial fog)

METAR text: RKSI 222100Z 27002KT 1400 0100NE R33R/1800U R33L/1600D R34/1200D PRFG SCT005 M01/M03 Q1018 NOSIG
Conditions at: RKSI (CHAJANG NI , KR) observed 2100 UTC 22 January 2019
Temperature: -1.0°C (30°F)
Dewpoint: -3.0°C (27°F) [RH = 86%]
Pressure (altimeter): 30.06 inches Hg (1018.0 mb)
Winds: from the W (270 degrees) at 2 MPH (2 knots; 1.0 m/s)
Visibility: 0.87 miles (1.40 km)
Ceiling: at least 12,000 feet AGL
Clouds: scattered clouds at 500 feet AGL
Weather: PRFG  (partial fog)

METAR text: RKSI 222030Z 00000KT 1400 0900N R33R/1000D R33L/P2000N R34/1500D PRFG SCT010 M02/M03 Q1017 NOSIG
Conditions at: RKSI (CHAJANG NI , KR) observed 2030 UTC 22 January 2019
Temperature: -2.0°C (28°F)
Dewpoint: -3.0°C (27°F) [RH = 93%]
Pressure (altimeter): 30.03 inches Hg (1017.0 mb)
Winds: calm
Visibility: 0.87 miles (1.40 km)
Ceiling: at least 12,000 feet AGL
Clouds: scattered clouds at 1000 feet AGL
Weather: PRFG  (partial fog)

METAR text: RKSI 222000Z 02002KT 1400 0200N R33R/P2000N R33L/P2000N R34/1200U PRFG FEW015 M01/M02 Q1018 NOSIG
Conditions at: RKSI (CHAJANG NI , KR) observed 2000 UTC 22 January 2019
Temperature: -1.0°C (30°F)
Dewpoint: -2.0°C (28°F) [RH = 93%]
Pressure (altimeter): 30.06 inches Hg (1018.0 mb)
Winds: from the NNE (20 degrees) at 2 MPH (2 knots; 1.0 m/s)
Visibility: 0.87 miles (1.40 km)
Ceiling: at least 12,000 feet AGL
Clouds: few clouds at 1500 feet AGL
Weather: PRFG  (partial fog)

METAR text: RKSI 221930Z 15001KT 1400 0800N R33R/1300D R33L/P2000N R34/P2000N PRFG FEW010 M02/M04 Q1018 NOSIG
Conditions at: RKSI (CHAJANG NI , KR) observed 1930 UTC 22 January 2019
Temperature: -2.0°C (28°F)
Dewpoint: -4.0°C (25°F) [RH = 86%]
Pressure (altimeter): 30.06 inches Hg (1018.0 mb)
Winds: from the SSE (150 degrees) at 1 MPH (1 knots; 0.5 m/s)
Visibility: 0.87 miles (1.40 km)
Ceiling: at least 12,000 feet AGL
Clouds: few clouds at 1000 feet AGL
Weather: PRFG  (partial fog)

METAR text: RKSI 221900Z 05002KT 1400 R33R/1300U R33L/P2000N R34/P2000N BR FEW020 M01/M03 Q1018 NOSIG
Conditions at: RKSI (CHAJANG NI , KR) observed 1900 UTC 22 January 2019
Temperature: -1.0°C (30°F)
Dewpoint: -3.0°C (27°F) [RH = 86%]
Pressure (altimeter): 30.06 inches Hg (1018.0 mb)
Winds: from the NE (50 degrees) at 2 MPH (2 knots; 1.0 m/s)
Visibility: 0.87 miles (1.40 km)
Ceiling: at least 12,000 feet AGL
Clouds: few clouds at 2000 feet AGL
Weather: BR  (mist)

METAR text: RKSI 221830Z 04002KT 1400 R33R/P2000N R33L/P2000U R34/P2000N BR NSC M02/M04 Q1018 NOSIG
Conditions at: RKSI (CHAJANG NI , KR) observed 1830 UTC 22 January 2019
Temperature: -2.0°C (28°F)
Dewpoint: -4.0°C (25°F) [RH = 86%]
Pressure (altimeter): 30.06 inches Hg (1018.0 mb)
Winds: from the NE (40 degrees) at 2 MPH (2 knots; 1.0 m/s)
Visibility: 0.87 miles (1.40 km)
Ceiling: at least 12,000 feet AGL
Clouds: sky clear below 12,000 feet AGL
Weather: BR  (mist)

METAR text: RKSI 221800Z 23005KT 1800 BR NSC 01/M01 Q1018 NOSIG
Conditions at: RKSI (CHAJANG NI , KR) observed 1800 UTC 22 January 2019
Temperature: 1.0°C (34°F)
Dewpoint: -1.0°C (30°F) [RH = 86%]
Pressure (altimeter): 30.06 inches Hg (1018.0 mb)
Winds: from the SW (230 degrees) at 6 MPH (5 knots; 2.6 m/s)
Visibility: 1.12 miles (1.80 km)
Ceiling: at least 12,000 feet AGL
Clouds: sky clear below 12,000 feet AGL
Weather: BR  (mist)

METAR text: RKSI 221730Z 24005KT 2500 BR NSC 02/M00 Q1018 NOSIG
Conditions at: RKSI (CHAJANG NI , KR) observed 1730 UTC 22 January 2019
Temperature: 2.0°C (36°F)
Dewpoint: 0.0°C (32°F) [RH = 87%]
Pressure (altimeter): 30.06 inches Hg (1018.0 mb)
Winds: from the WSW (240 degrees) at 6 MPH (5 knots; 2.6 m/s)
Visibility: 1.55 miles (2.49 km)
Ceiling: at least 12,000 feet AGL
Clouds: sky clear below 12,000 feet AGL
Weather: BR  (mist)

METAR text: RKSI 221700Z 24005KT 4000 BR NSC 01/M01 Q1018 NOSIG
Conditions at: RKSI (CHAJANG NI , KR) observed 1700 UTC 22 January 2019
Temperature: 1.0°C (34°F)
Dewpoint: -1.0°C (30°F) [RH = 86%]
Pressure (altimeter): 30.06 inches Hg (1018.0 mb)
Winds: from the WSW (240 degrees) at 6 MPH (5 knots; 2.6 m/s)
Visibility: 2.49 miles (4.01 km)
Ceiling: at least 12,000 feet AGL
Clouds: sky clear below 12,000 feet AGL
Weather: BR  (mist)

METAR text: RKSI 221630Z 24005KT 4500 BR NSC 01/M02 Q1018 NOSIG
Conditions at: RKSI (CHAJANG NI , KR) observed 1630 UTC 22 January 2019
Temperature: 1.0°C (34°F)
Dewpoint: -2.0°C (28°F) [RH = 80%]
Pressure (altimeter): 30.06 inches Hg (1018.0 mb)
Winds: from the WSW (240 degrees) at 6 MPH (5 knots; 2.6 m/s)
Visibility: 2.80 miles (4.51 km)
Ceiling: at least 12,000 feet AGL
Clouds: sky clear below 12,000 feet AGL
Weather: BR  (mist)

METAR text: RKSI 221600Z 26005KT 5000 BR NSC 01/M02 Q1018 NOSIG
Conditions at: RKSI (CHAJANG NI , KR) observed 1600 UTC 22 January 2019
Temperature: 1.0°C (34°F)
Dewpoint: -2.0°C (28°F) [RH = 80%]
Pressure (altimeter): 30.06 inches Hg (1018.0 mb)
Winds: from the W (260 degrees) at 6 MPH (5 knots; 2.6 m/s)
Visibility: 3 miles ( 5 km)
Ceiling: at least 12,000 feet AGL
Clouds: sky clear below 12,000 feet AGL
Weather: BR  (mist)

METAR text: RKSI 221530Z 26007KT 6000 NSC 02/M01 Q1019 NOSIG
Conditions at: RKSI (CHAJANG NI , KR) observed 1530 UTC 22 January 2019
Temperature: 2.0°C (36°F)
Dewpoint: -1.0°C (30°F) [RH = 80%]
Pressure (altimeter): 30.09 inches Hg (1019.0 mb)
Winds: from the W (260 degrees) at 8 MPH (7 knots; 3.6 m/s)
Visibility: 4 miles ( 6 km)
Ceiling: at least 12,000 feet AGL
Clouds: sky clear below 12,000 feet AGL
Weather: no significant weather observed at this time

METAR text: RKSI 221500Z 26006KT 240V310 6000 NSC 03/M01 Q1019 NOSIG
Conditions at: RKSI (CHAJANG NI , KR) observed 1500 UTC 22 January 2019
Temperature: 3.0°C (37°F)
Dewpoint: -1.0°C (30°F) [RH = 75%]
Pressure (altimeter): 30.09 inches Hg (1019.0 mb)
Winds: from the W (260 degrees) at 7 MPH (6 knots; 3.1 m/s)
Visibility: 4 miles ( 6 km)
Ceiling: at least 12,000 feet AGL
Clouds: sky clear below 12,000 feet AGL
Weather: no significant weather observed at this time

METAR text: RKSI 221430Z 26007KT 240V340 6000 NSC 03/M01 Q1019 NOSIG
Conditions at: RKSI (CHAJANG NI , KR) observed 1430 UTC 22 January 2019
Temperature: 3.0°C (37°F)
Dewpoint: -1.0°C (30°F) [RH = 75%]
Pressure (altimeter): 30.09 inches Hg (1019.0 mb)
Winds: from the W (260 degrees) at 8 MPH (7 knots; 3.6 m/s)
Visibility: 4 miles ( 6 km)
Ceiling: at least 12,000 feet AGL
Clouds: sky clear below 12,000 feet AGL
Weather: no significant weather observed at this time

METAR text: RKSI 221400Z 25007KT 6000 NSC 03/M02 Q1018 NOSIG
Conditions at: RKSI (CHAJANG NI , KR) observed 1400 UTC 22 January 2019
Temperature: 3.0°C (37°F)
Dewpoint: -2.0°C (28°F) [RH = 70%]
Pressure (altimeter): 30.06 inches Hg (1018.0 mb)
Winds: from the WSW (250 degrees) at 8 MPH (7 knots; 3.6 m/s)
Visibility: 4 miles ( 6 km)
Ceiling: at least 12,000 feet AGL
Clouds: sky clear below 12,000 feet AGL
Weather: no significant weather observed at this time

METAR text: RKSI 221330Z 24006KT 6000 NSC 03/M02 Q1018 NOSIG
Conditions at: RKSI (CHAJANG NI , KR) observed 1330 UTC 22 January 2019
Temperature: 3.0°C (37°F)
Dewpoint: -2.0°C (28°F) [RH = 70%]
Pressure (altimeter): 30.06 inches Hg (1018.0 mb)
Winds: from the WSW (240 degrees) at 7 MPH (6 knots; 3.1 m/s)
Visibility: 4 miles ( 6 km)
Ceiling: at least 12,000 feet AGL
Clouds: sky clear below 12,000 feet AGL
Weather: no significant weather observed at this time

METAR text: RKSI 221300Z 24006KT 7000 NSC 03/M02 Q1018 NOSIG
Conditions at: RKSI (CHAJANG NI , KR) observed 1300 UTC 22 January 2019
Temperature: 3.0°C (37°F)
Dewpoint: -2.0°C (28°F) [RH = 70%]
Pressure (altimeter): 30.06 inches Hg (1018.0 mb)
Winds: from the WSW (240 degrees) at 7 MPH (6 knots; 3.1 m/s)
Visibility: 4 miles ( 7 km)
Ceiling: at least 12,000 feet AGL
Clouds: sky clear below 12,000 feet AGL
Weather: no significant weather observed at this time

METAR text: RKSI 221230Z 23006KT 7000 NSC 03/M02 Q1018 NOSIG
Conditions at: RKSI (CHAJANG NI , KR) observed 1230 UTC 22 January 2019
Temperature: 3.0°C (37°F)
Dewpoint: -2.0°C (28°F) [RH = 70%]
Pressure (altimeter): 30.06 inches Hg (1018.0 mb)
Winds: from the SW (230 degrees) at 7 MPH (6 knots; 3.1 m/s)
Visibility: 4 miles ( 7 km)
Ceiling: at least 12,000 feet AGL
Clouds: sky clear below 12,000 feet AGL
Weather: no significant weather observed at this time

METAR text: RKSI 221200Z 24007KT 200V280 9000 NSC 03/M03 Q1018 NOSIG
Conditions at: RKSI (CHAJANG NI , KR) observed 1200 UTC 22 January 2019
Temperature: 3.0°C (37°F)
Dewpoint: -3.0°C (27°F) [RH = 65%]
Pressure (altimeter): 30.06 inches Hg (1018.0 mb)
Winds: from the WSW (240 degrees) at 8 MPH (7 knots; 3.6 m/s)
Visibility: 6 miles ( 9 km)
Ceiling: at least 12,000 feet AGL
Clouds: sky clear below 12,000 feet AGL
Weather: no significant weather observed at this time

METAR text: RKSI 221130Z 25007KT CAVOK 04/M03 Q1018 NOSIG
Conditions at: RKSI (CHAJANG NI , KR) observed 1130 UTC 22 January 2019
Temperature: 4.0°C (39°F)
Dewpoint: -3.0°C (27°F) [RH = 60%]
Pressure (altimeter): 30.06 inches Hg (1018.0 mb)
Winds: from the WSW (250 degrees) at 8 MPH (7 knots; 3.6 m/s)
Visibility: 6 or more miles (10+ km)
Ceiling: ceiling and visibility are OK
Clouds: unknown
Weather: no significant weather observed at this time

METAR text: RKSI 221100Z 25007KT CAVOK 04/M03 Q1018 NOSIG
Conditions at: RKSI (CHAJANG NI , KR) observed 1100 UTC 22 January 2019
Temperature: 4.0°C (39°F)
Dewpoint: -3.0°C (27°F) [RH = 60%]
Pressure (altimeter): 30.06 inches Hg (1018.0 mb)
Winds: from the WSW (250 degrees) at 8 MPH (7 knots; 3.6 m/s)
Visibility: 6 or more miles (10+ km)
Ceiling: ceiling and visibility are OK
Clouds: unknown
Weather: no significant weather observed at this time

METAR text: RKSI 221030Z 24007KT CAVOK 03/M03 Q1018 NOSIG
Conditions at: RKSI (CHAJANG NI , KR) observed 1030 UTC 22 January 2019
Temperature: 3.0°C (37°F)
Dewpoint: -3.0°C (27°F) [RH = 65%]
Pressure (altimeter): 30.06 inches Hg (1018.0 mb)
Winds: from the WSW (240 degrees) at 8 MPH (7 knots; 3.6 m/s)
Visibility: 6 or more miles (10+ km)
Ceiling: ceiling and visibility are OK
Clouds: unknown
Weather: no significant weather observed at this time

METAR text: RKSI 221000Z 22005KT CAVOK 03/M02 Q1018 NOSIG
Conditions at: RKSI (CHAJANG NI , KR) observed 1000 UTC 22 January 2019
Temperature: 3.0°C (37°F)
Dewpoint: -2.0°C (28°F) [RH = 70%]
Pressure (altimeter): 30.06 inches Hg (1018.0 mb)
Winds: from the SW (220 degrees) at 6 MPH (5 knots; 2.6 m/s)
Visibility: 6 or more miles (10+ km)
Ceiling: ceiling and visibility are OK
Clouds: unknown
Weather: no significant weather observed at this time

METAR text: RKSI 220930Z 21007KT CAVOK 04/M02 Q1018 NOSIG
Conditions at: RKSI (CHAJANG NI , KR) observed 0930 UTC 22 January 2019
Temperature: 4.0°C (39°F)
Dewpoint: -2.0°C (28°F) [RH = 65%]
Pressure (altimeter): 30.06 inches Hg (1018.0 mb)
Winds: from the SSW (210 degrees) at 8 MPH (7 knots; 3.6 m/s)
Visibility: 6 or more miles (10+ km)
Ceiling: ceiling and visibility are OK
Clouds: unknown
Weather: no significant weather observed at this time

METAR text: RKSI 220900Z 22008KT CAVOK 04/M02 Q1018 NOSIG
Conditions at: RKSI (CHAJANG NI , KR) observed 0900 UTC 22 January 2019
Temperature: 4.0°C (39°F)
Dewpoint: -2.0°C (28°F) [RH = 65%]
Pressure (altimeter): 30.06 inches Hg (1018.0 mb)
Winds: from the SW (220 degrees) at 9 MPH (8 knots; 4.1 m/s)
Visibility: 6 or more miles (10+ km)
Ceiling: ceiling and visibility are OK
Clouds: unknown
Weather: no significant weather observed at this time

METAR text: RKSI 220830Z 22007KT 190V260 9999 FEW030 04/M02 Q1018 NOSIG
Conditions at: RKSI (CHAJANG NI , KR) observed 0830 UTC 22 January 2019
Temperature: 4.0°C (39°F)
Dewpoint: -2.0°C (28°F) [RH = 65%]
Pressure (altimeter): 30.06 inches Hg (1018.0 mb)
Winds: from the SW (220 degrees) at 8 MPH (7 knots; 3.6 m/s)
Visibility: 6 or more miles (10+ km)
Ceiling: at least 12,000 feet AGL
Clouds: few clouds at 3000 feet AGL
Weather: no significant weather observed at this time

METAR text: RKSI 220800Z 23008KT 9999 FEW030 05/M03 Q1018 NOSIG
Conditions at: RKSI (CHAJANG NI , KR) observed 0800 UTC 22 January 2019
Temperature: 5.0°C (41°F)
Dewpoint: -3.0°C (27°F) [RH = 56%]
Pressure (altimeter): 30.06 inches Hg (1018.0 mb)
Winds: from the SW (230 degrees) at 9 MPH (8 knots; 4.1 m/s)
Visibility: 6 or more miles (10+ km)
Ceiling: at least 12,000 feet AGL
Clouds: few clouds at 3000 feet AGL
Weather: no significant weather observed at this time

METAR text: RKSI 220730Z 24011KT 9999 FEW030 05/M03 Q1018 NOSIG
Conditions at: RKSI (CHAJANG NI , KR) observed 0730 UTC 22 January 2019
Temperature: 5.0°C (41°F)
Dewpoint: -3.0°C (27°F) [RH = 56%]
Pressure (altimeter): 30.06 inches Hg (1018.0 mb)
Winds: from the WSW (240 degrees) at 13 MPH (11 knots; 5.7 m/s)
Visibility: 6 or more miles (10+ km)
Ceiling: at least 12,000 feet AGL
Clouds: few clouds at 3000 feet AGL
Weather: no significant weather observed at this time

METAR text: RKSI 220700Z 25010KT 9999 FEW030 05/M03 Q1018 NOSIG
Conditions at: RKSI (CHAJANG NI , KR) observed 0700 UTC 22 January 2019
Temperature: 5.0°C (41°F)
Dewpoint: -3.0°C (27°F) [RH = 56%]
Pressure (altimeter): 30.06 inches Hg (1018.0 mb)
Winds: from the WSW (250 degrees) at 12 MPH (10 knots; 5.1 m/s)
Visibility: 6 or more miles (10+ km)
Ceiling: at least 12,000 feet AGL
Clouds: few clouds at 3000 feet AGL
Weather: no significant weather observed at this time

METAR text: RKSI 220630Z 24012KT 9999 FEW030 06/M03 Q1019 NOSIG
Conditions at: RKSI (CHAJANG NI , KR) observed 0630 UTC 22 January 2019
Temperature: 6.0°C (43°F)
Dewpoint: -3.0°C (27°F) [RH = 52%]
Pressure (altimeter): 30.09 inches Hg (1019.0 mb)
Winds: from the WSW (240 degrees) at 14 MPH (12 knots; 6.2 m/s)
Visibility: 6 or more miles (10+ km)
Ceiling: at least 12,000 feet AGL
Clouds: few clouds at 3000 feet AGL
Weather: no significant weather observed at this time

METAR text: RKSI 220600Z 24012KT 9999 SCT030 06/M03 Q1018 NOSIG
Conditions at: RKSI (CHAJANG NI , KR) observed 0600 UTC 22 January 2019
Temperature: 6.0°C (43°F)
Dewpoint: -3.0°C (27°F) [RH = 52%]
Pressure (altimeter): 30.06 inches Hg (1018.0 mb)
Winds: from the WSW (240 degrees) at 14 MPH (12 knots; 6.2 m/s)
Visibility: 6 or more miles (10+ km)
Ceiling: at least 12,000 feet AGL
Clouds: scattered clouds at 3000 feet AGL
Weather: no significant weather observed at this time

METAR text: RKSI 220530Z 25012KT 220V280 9999 SCT030 06/M03 Q1018 NOSIG
Conditions at: RKSI (CHAJANG NI , KR) observed 0530 UTC 22 January 2019
Temperature: 6.0°C (43°F)
Dewpoint: -3.0°C (27°F) [RH = 52%]
Pressure (altimeter): 30.06 inches Hg (1018.0 mb)
Winds: from the WSW (250 degrees) at 14 MPH (12 knots; 6.2 m/s)
Visibility: 6 or more miles (10+ km)
Ceiling: at least 12,000 feet AGL
Clouds: scattered clouds at 3000 feet AGL
Weather: no significant weather observed at this time

METAR text: RKSI 220500Z 24011KT 9999 SCT030 06/M04 Q1019 NOSIG
Conditions at: RKSI (CHAJANG NI , KR) observed 0500 UTC 22 January 2019
Temperature: 6.0°C (43°F)
Dewpoint: -4.0°C (25°F) [RH = 49%]
Pressure (altimeter): 30.09 inches Hg (1019.0 mb)
Winds: from the WSW (240 degrees) at 13 MPH (11 knots; 5.7 m/s)
Visibility: 6 or more miles (10+ km)
Ceiling: at least 12,000 feet AGL
Clouds: scattered clouds at 3000 feet AGL
Weather: no significant weather observed at this time

METAR text: RKSI 220430Z 25012KT 9999 SCT030 06/M03 Q1019 NOSIG
Conditions at: RKSI (CHAJANG NI , KR) observed 0430 UTC 22 January 2019
Temperature: 6.0°C (43°F)
Dewpoint: -3.0°C (27°F) [RH = 52%]
Pressure (altimeter): 30.09 inches Hg (1019.0 mb)
Winds: from the WSW (250 degrees) at 14 MPH (12 knots; 6.2 m/s)
Visibility: 6 or more miles (10+ km)
Ceiling: at least 12,000 feet AGL
Clouds: scattered clouds at 3000 feet AGL
Weather: no significant weather observed at this time

METAR text: RKSI 220400Z 25011KT 9999 SCT030 06/M03 Q1019 NOSIG
Conditions at: RKSI (CHAJANG NI , KR) observed 0400 UTC 22 January 2019
Temperature: 6.0°C (43°F)
Dewpoint: -3.0°C (27°F) [RH = 52%]
Pressure (altimeter): 30.09 inches Hg (1019.0 mb)
Winds: from the WSW (250 degrees) at 13 MPH (11 knots; 5.7 m/s)
Visibility: 6 or more miles (10+ km)
Ceiling: at least 12,000 feet AGL
Clouds: scattered clouds at 3000 feet AGL
Weather: no significant weather observed at this time

METAR text: RKSI 220330Z 23011KT 190V250 9999 SCT030 06/M03 Q1020 NOSIG
Conditions at: RKSI (CHAJANG NI , KR) observed 0330 UTC 22 January 2019
Temperature: 6.0°C (43°F)
Dewpoint: -3.0°C (27°F) [RH = 52%]
Pressure (altimeter): 30.12 inches Hg (1020.0 mb)
Winds: from the SW (230 degrees) at 13 MPH (11 knots; 5.7 m/s)
Visibility: 6 or more miles (10+ km)
Ceiling: at least 12,000 feet AGL
Clouds: scattered clouds at 3000 feet AGL
Weather: no significant weather observed at this time

METAR text: RKSI 220300Z 22009KT 190V250 CAVOK 06/M03 Q1020 NOSIG
Conditions at: RKSI (CHAJANG NI , KR) observed 0300 UTC 22 January 2019
Temperature: 6.0°C (43°F)
Dewpoint: -3.0°C (27°F) [RH = 52%]
Pressure (altimeter): 30.12 inches Hg (1020.0 mb)
Winds: from the SW (220 degrees) at 10 MPH (9 knots; 4.6 m/s)
Visibility: 6 or more miles (10+ km)
Ceiling: ceiling and visibility are OK
Clouds: unknown
Weather: no significant weather observed at this time

METAR text: RKSI 220230Z 21008KT 180V240 CAVOK 05/M04 Q1020 NOSIG
Conditions at: RKSI (CHAJANG NI , KR) observed 0230 UTC 22 January 2019
Temperature: 5.0°C (41°F)
Dewpoint: -4.0°C (25°F) [RH = 52%]
Pressure (altimeter): 30.12 inches Hg (1020.0 mb)
Winds: from the SSW (210 degrees) at 9 MPH (8 knots; 4.1 m/s)
Visibility: 6 or more miles (10+ km)
Ceiling: ceiling and visibility are OK
Clouds: unknown
Weather: no significant weather observed at this time

METAR text: RKSI 220200Z 20005KT 120V270 CAVOK 05/M02 Q1020 NOSIG
Conditions at: RKSI (CHAJANG NI , KR) observed 0200 UTC 22 January 2019
Temperature: 5.0°C (41°F)
Dewpoint: -2.0°C (28°F) [RH = 60%]
Pressure (altimeter): 30.12 inches Hg (1020.0 mb)
Winds: from the SSW (200 degrees) at 6 MPH (5 knots; 2.6 m/s)
Visibility: 6 or more miles (10+ km)
Ceiling: ceiling and visibility are OK
Clouds: unknown
Weather: no significant weather observed at this time

Forecast for: RKSI (CHAJANG NI , KR)
Text: TAF RKSI 231100Z 2312/2418 33015G25KT 9999 FEW030 TNM06/2321Z TX02/2406Z
Forecast period: 1200 to 1500 UTC 23 January 2019
Forecast type: FROM: standard forecast or significant change
Winds: from the NNW (330 degrees) at 17 MPH (15 knots; 7.7 m/s)
gusting to 29 MPH (25 knots; 12.9 m/s)
Visibility: 6 or more miles 10+ km)
Ceiling: at least 12,000 feet AGL
Clouds: few clouds at 3000 feet AGL
Weather: no significant weather forecast for this period
Text: BECMG 2315/2316 33010KT
Forecast period: 1500 UTC 23 January 2019 to 1800 UTC 24 January 2019
Forecast type: BECOMING: Conditions expected to become as follows by 1600 UTC 23 January 2019
Winds: from the NNW (330 degrees) at 12 MPH (10 knots; 5.1 m/s)
Visibility: 6 or more miles 10+ km)
Ceiling: at least 12,000 feet AGL
Clouds: few clouds at 3000 feet AGL
Weather: no significant weather forecast for this period